createdAt,value
2019-02-21T00:01:15.700Z,26.60
2019-02-21T00:03:45.035Z,30.00
2019-02-21T00:06:13.884Z,30.50
2019-02-21T00:08:43.382Z,35.70
2019-02-21T00:11:13.397Z,28.20
2019-02-21T00:13:43.212Z,32.00
2019-02-21T00:16:12.808Z,29.13
2019-02-21T00:18:43.304Z,29.10
2019-02-21T00:21:12.732Z,29.27
2019-02-21T00:23:41.512Z,32.57
2019-02-21T00:26:10.568Z,25.03
2019-02-21T00:28:39.373Z,31.57
2019-02-21T00:31:08.179Z,34.23
2019-02-21T00:33:36.989Z,28.43
2019-02-21T00:36:06.379Z,27.43
2019-02-21T00:38:35.183Z,27.97
2019-02-21T00:41:04.993Z,33.97
2019-02-21T00:43:33.808Z,29.80
2019-02-21T00:46:03.515Z,37.73
2019-02-21T00:48:34.044Z,30.13
2019-02-21T00:51:03.536Z,26.43
2019-02-21T00:53:32.958Z,34.27
2019-02-21T00:56:01.736Z,25.20
2019-02-21T00:58:32.802Z,38.50
2019-02-21T01:01:06.530Z,31.73
2019-02-21T01:03:35.910Z,32.03
2019-02-21T01:06:04.722Z,33.73
2019-02-21T01:08:34.091Z,30.37
2019-02-21T01:11:03.452Z,33.60
2019-02-21T01:13:33.446Z,36.60
2019-02-21T01:16:02.270Z,40.50
2019-02-21T01:18:31.069Z,35.10
2019-02-21T01:20:59.876Z,31.40
2019-02-21T01:23:29.247Z,32.93
2019-02-21T01:25:58.058Z,35.67
2019-02-21T01:28:27.559Z,37.27
2019-02-21T01:30:57.413Z,32.33
2019-02-21T01:33:25.779Z,30.83
2019-02-21T01:35:55.088Z,33.03
2019-02-21T01:38:23.875Z,38.30
2019-02-21T01:40:53.599Z,35.33
2019-02-21T01:43:23.985Z,38.67
2019-02-21T01:45:52.923Z,38.50
2019-02-21T01:48:22.266Z,37.57
2019-02-21T01:50:51.052Z,36.83
2019-02-21T01:53:20.440Z,37.40
2019-02-21T01:55:49.230Z,34.50
2019-02-21T01:58:18.583Z,43.70
2019-02-21T02:00:47.378Z,39.73
2019-02-21T02:03:17.402Z,37.70
2019-02-21T02:05:46.475Z,35.17
2019-02-21T02:08:15.860Z,38.30
2019-02-21T02:10:44.630Z,37.83
2019-02-21T02:13:24.159Z,34.43
2019-02-21T02:15:42.359Z,42.40
2019-02-21T02:18:12.468Z,42.27
2019-02-21T02:20:42.074Z,46.03
2019-02-21T02:23:11.508Z,35.27
2019-02-21T02:25:41.226Z,43.07
2019-02-21T02:28:10.733Z,48.87
2019-02-21T02:30:40.271Z,44.60
2019-02-21T02:33:09.031Z,53.13
2019-02-21T02:35:37.905Z,47.77
2019-02-21T02:38:07.343Z,45.53
2019-02-21T02:40:36.656Z,49.77
2019-02-21T02:43:05.441Z,44.97
2019-02-21T02:45:34.261Z,52.47
2019-02-21T02:48:03.078Z,52.93
2019-02-21T02:50:32.097Z,45.07
2019-02-21T02:53:01.759Z,38.70
2019-02-21T02:55:30.550Z,49.80
2019-02-21T02:58:00.406Z,46.50
2019-02-21T03:00:29.203Z,41.50
2019-02-21T03:02:59.568Z,41.83
2019-02-21T03:05:28.479Z,42.83
2019-02-21T03:07:57.307Z,44.40
2019-02-21T03:10:26.818Z,42.60
2019-02-21T03:12:55.595Z,42.97
2019-02-21T03:15:24.518Z,42.13
2019-02-21T03:17:53.331Z,46.73
2019-02-21T03:20:23.891Z,44.23
2019-02-21T03:22:52.657Z,44.87
2019-02-21T03:25:21.449Z,53.70
2019-02-21T03:27:50.253Z,55.00
2019-02-21T03:30:20.609Z,36.97
2019-02-21T03:32:49.525Z,47.90
2019-02-21T03:35:18.318Z,44.03
2019-02-21T03:37:48.428Z,46.40
2019-02-21T03:40:17.250Z,48.83
2019-02-21T03:42:46.670Z,41.80
2019-02-21T03:45:15.912Z,40.97
2019-02-21T03:47:44.975Z,52.50
2019-02-21T03:50:14.436Z,48.33
2019-02-21T03:52:43.980Z,49.97
2019-02-21T03:55:13.727Z,50.43
2019-02-21T03:57:43.154Z,38.53
2019-02-21T04:00:11.982Z,53.20
2019-02-21T04:02:41.382Z,54.20
2019-02-21T04:05:10.388Z,43.43
2019-02-21T04:07:40.146Z,59.50
2019-02-21T04:10:10.168Z,47.60
2019-02-21T04:12:39.482Z,47.67
2019-02-21T04:15:08.344Z,48.40
2019-02-21T04:17:38.085Z,47.83
2019-02-21T04:20:06.947Z,55.50
2019-02-21T04:22:35.733Z,47.63
2019-02-21T04:25:04.647Z,68.60
2019-02-21T04:27:33.479Z,54.87
2019-02-21T04:30:03.010Z,54.70
2019-02-21T04:32:32.571Z,54.27
2019-02-21T04:35:01.423Z,56.37
2019-02-21T04:37:30.517Z,45.10
2019-02-21T04:39:59.304Z,50.50
2019-02-21T04:42:29.041Z,44.00
2019-02-21T04:44:57.808Z,62.80
2019-02-21T04:47:27.631Z,54.63
2019-02-21T04:49:57.693Z,61.87
2019-02-21T04:52:26.467Z,67.17
2019-02-21T04:54:55.263Z,55.57
2019-02-21T04:57:24.088Z,59.97
2019-02-21T04:59:52.987Z,47.10
2019-02-21T05:02:29.277Z,58.10
2019-02-21T05:04:50.863Z,45.30
2019-02-21T05:07:20.494Z,52.03
2019-02-21T05:09:57.300Z,43.53
2019-02-21T05:12:20.179Z,51.47
2019-02-21T05:14:48.887Z,53.70
2019-02-21T05:17:20.417Z,45.47
2019-02-21T05:19:50.405Z,51.23
2019-02-21T05:22:20.080Z,54.93
2019-02-21T05:24:49.035Z,58.23
2019-02-21T05:27:24.239Z,52.30
2019-02-21T05:29:53.063Z,61.07
2019-02-21T05:32:27.186Z,64.13
2019-02-21T05:35:06.547Z,61.03
2019-02-21T05:37:41.227Z,70.33
2019-02-21T05:40:14.238Z,73.10
2019-02-21T05:42:55.432Z,44.23
2019-02-21T05:45:30.651Z,75.27
2019-02-21T05:48:09.306Z,61.70
2019-02-21T05:50:44.178Z,60.20
2019-02-21T05:53:17.126Z,76.27
2019-02-21T05:55:51.586Z,59.30
2019-02-21T05:58:26.174Z,67.17
2019-02-21T06:01:01.005Z,69.30
2019-02-21T06:03:36.994Z,77.67
2019-02-21T06:06:17.297Z,70.00
2019-02-21T06:08:49.759Z,71.07
2019-02-21T06:11:25.443Z,69.60
2019-02-21T06:14:00.886Z,76.43
2019-02-21T06:16:35.077Z,72.37
2019-02-21T06:19:27.516Z,75.57
2019-02-21T06:22:10.032Z,65.57
2019-02-21T06:24:51.523Z,66.50
2019-02-21T06:27:25.233Z,76.23
2019-02-21T06:29:58.429Z,71.10
2019-02-21T06:32:28.249Z,62.90
2019-02-21T06:35:02.795Z,81.57
2019-02-21T06:37:30.679Z,70.50
2019-02-21T06:40:00.211Z,66.60
2019-02-21T06:42:29.293Z,65.33
2019-02-21T06:44:59.902Z,61.83
2019-02-21T06:47:29.032Z,62.67
2019-02-21T06:49:58.780Z,67.07
2019-02-21T06:52:28.027Z,65.20
2019-02-21T06:54:56.897Z,64.90
2019-02-21T06:57:27.365Z,71.37
2019-02-21T06:59:56.172Z,72.20
2019-02-21T07:02:27.988Z,83.37
2019-02-21T07:04:56.604Z,66.63
2019-02-21T07:07:23.355Z,67.93
2019-02-21T07:09:52.736Z,60.97
2019-02-21T07:12:21.542Z,67.80
2019-02-21T07:14:50.848Z,51.60
2019-02-21T07:17:20.650Z,58.40
2019-02-21T07:19:50.619Z,60.70
2019-02-21T07:22:22.369Z,59.83
2019-02-21T07:24:50.310Z,66.87
2019-02-21T07:27:19.611Z,59.23
2019-02-21T07:29:49.205Z,59.37
2019-02-21T07:32:18.018Z,64.87
2019-02-21T07:34:47.809Z,60.67
2019-02-21T07:37:18.954Z,63.50
2019-02-21T07:39:47.929Z,64.20
2019-02-21T07:42:17.374Z,73.43
2019-02-21T07:44:46.167Z,72.10
2019-02-21T07:47:15.819Z,66.33
2019-02-21T07:49:45.885Z,58.07
2019-02-21T07:52:14.715Z,61.70
2019-02-21T07:54:46.538Z,70.60
2019-02-21T07:57:16.371Z,68.67
2019-02-21T07:59:45.155Z,64.43
2019-02-21T08:02:13.946Z,73.57
2019-02-21T08:04:43.350Z,63.07
2019-02-21T08:07:12.145Z,71.93
2019-02-21T08:09:41.851Z,71.87
2019-02-21T08:12:10.357Z,70.50
2019-02-21T08:14:39.760Z,72.70
2019-02-21T08:17:09.988Z,70.53
2019-02-21T08:19:38.810Z,68.03
2019-02-21T08:22:07.656Z,66.33
2019-02-21T08:24:37.455Z,76.83
2019-02-21T08:27:06.244Z,79.03
2019-02-21T08:29:35.050Z,79.43
2019-02-21T08:32:04.104Z,80.07
2019-02-21T08:34:37.164Z,75.33
2019-02-21T08:37:08.545Z,81.73
2019-02-21T08:39:37.958Z,80.90
2019-02-21T08:42:07.896Z,79.83
2019-02-21T08:44:38.134Z,89.27
2019-02-21T08:47:06.967Z,80.13
2019-02-21T08:49:36.040Z,81.50
2019-02-21T08:52:04.813Z,74.70
2019-02-21T08:54:34.320Z,100.13
2019-02-21T08:57:04.002Z,81.53
2019-02-21T08:59:32.789Z,85.53
2019-02-21T09:02:01.614Z,90.40
2019-02-21T09:04:30.425Z,86.70
2019-02-21T09:06:59.266Z,79.73
2019-02-21T09:09:28.114Z,84.40
2019-02-21T09:11:56.939Z,90.73
2019-02-21T09:14:25.741Z,85.70
2019-02-21T09:16:54.807Z,89.63
2019-02-21T09:19:23.591Z,85.47
2019-02-21T09:21:53.566Z,90.57
2019-02-21T09:24:37.486Z,81.17
2019-02-21T09:26:50.112Z,83.27
2019-02-21T09:29:18.931Z,81.17
2019-02-21T09:31:48.199Z,85.77
2019-02-21T09:34:21.080Z,85.37
2019-02-21T09:36:46.392Z,76.23
2019-02-21T09:39:16.077Z,79.97
2019-02-21T09:41:44.683Z,81.53
2019-02-21T09:44:13.470Z,77.37
2019-02-21T09:46:43.371Z,76.00
2019-02-21T09:49:12.263Z,74.53
2019-02-21T09:51:41.069Z,69.87
2019-02-21T09:54:10.634Z,73.57
2019-02-21T09:56:40.376Z,67.03
2019-02-21T09:59:11.025Z,65.30
2019-02-21T10:01:39.827Z,67.67
2019-02-21T10:04:09.447Z,62.90
2019-02-21T10:06:38.763Z,59.20
2019-02-21T10:09:08.812Z,66.20
2019-02-21T10:11:37.680Z,65.50
2019-02-21T10:14:06.473Z,56.07
2019-02-21T10:16:38.299Z,67.40
2019-02-21T10:19:07.093Z,63.00
2019-02-21T10:21:35.947Z,64.57
2019-02-21T10:24:06.727Z,58.07
2019-02-21T10:26:35.634Z,61.03
2019-02-21T10:29:07.041Z,60.43
2019-02-21T10:31:36.231Z,65.60
2019-02-21T10:34:07.253Z,67.60
2019-02-21T10:36:36.114Z,63.93
2019-02-21T10:39:05.416Z,71.13
2019-02-21T10:41:34.599Z,58.43
2019-02-21T10:44:04.636Z,62.53
2019-02-21T10:46:33.688Z,58.47
2019-02-21T10:49:02.522Z,62.10
2019-02-21T10:51:31.921Z,55.10
2019-02-21T10:54:00.752Z,59.90
2019-02-21T10:56:29.602Z,53.30
2019-02-21T10:58:58.379Z,57.33
2019-02-21T11:01:27.185Z,61.47
2019-02-21T11:03:55.988Z,50.13
2019-02-21T11:06:24.792Z,55.10
2019-02-21T11:08:53.614Z,55.57
2019-02-21T11:11:22.738Z,46.13
2019-02-21T11:13:52.213Z,46.23
2019-02-21T11:16:21.560Z,54.97
2019-02-21T11:18:53.005Z,45.57
2019-02-21T11:21:21.798Z,41.57
2019-02-21T11:23:51.242Z,41.80
2019-02-21T11:26:20.809Z,46.80
2019-02-21T11:28:50.897Z,39.47
2019-02-21T11:31:19.685Z,48.67
2019-02-21T11:33:49.229Z,51.00
2019-02-21T11:36:18.127Z,43.60
2019-02-21T11:38:47.259Z,47.57
2019-02-21T11:41:17.016Z,46.07
2019-02-21T11:43:45.835Z,42.13
2019-02-21T11:46:14.661Z,46.20
2019-02-21T11:48:44.254Z,44.93
2019-02-21T11:51:13.667Z,38.97
2019-02-21T11:53:43.355Z,40.87
2019-02-21T11:56:12.275Z,35.17
2019-02-21T11:58:41.783Z,37.47
2019-02-21T12:01:10.916Z,41.50
2019-02-21T12:03:39.741Z,40.80
2019-02-21T12:06:11.632Z,38.43
2019-02-21T12:08:40.491Z,40.60
2019-02-21T12:11:09.404Z,38.00
2019-02-21T12:13:38.224Z,45.70
2019-02-21T12:16:07.020Z,44.43
2019-02-21T12:18:37.928Z,41.33
2019-02-21T12:21:06.738Z,39.90
2019-02-21T12:23:35.577Z,40.20
2019-02-21T12:26:04.363Z,45.83
2019-02-21T12:28:33.205Z,45.17
2019-02-21T12:31:01.972Z,43.30
2019-02-21T12:33:30.848Z,41.80
2019-02-21T12:36:01.495Z,41.97
2019-02-21T12:38:30.283Z,48.30
2019-02-21T12:40:59.164Z,48.33
2019-02-21T12:43:29.015Z,40.60
2019-02-21T12:46:00.998Z,41.63
2019-02-21T12:48:29.835Z,40.60
2019-02-21T12:50:58.708Z,45.63
2019-02-21T12:53:28.307Z,40.67
2019-02-21T12:55:56.299Z,46.47
2019-02-21T12:58:27.742Z,41.73
2019-02-21T13:00:56.546Z,44.13
2019-02-21T13:03:26.003Z,42.63
2019-02-21T13:05:56.583Z,45.17
2019-02-21T13:08:26.206Z,52.77
2019-02-21T13:10:54.994Z,49.43
2019-02-21T13:13:25.974Z,53.17
2019-02-21T13:15:55.507Z,49.13
2019-02-21T13:18:24.330Z,46.00
2019-02-21T13:20:54.203Z,50.33
2019-02-21T13:23:24.025Z,49.40
2019-02-21T13:25:53.469Z,45.03
2019-02-21T13:28:22.905Z,47.93
2019-02-21T13:30:51.713Z,47.83
2019-02-21T13:33:21.226Z,40.40
2019-02-21T13:35:52.908Z,47.40
2019-02-21T13:38:19.496Z,45.33
2019-02-21T13:40:49.662Z,43.43
2019-02-21T13:43:18.450Z,49.47
2019-02-21T13:45:47.226Z,43.73
2019-02-21T13:48:17.791Z,41.03
2019-02-21T13:50:46.565Z,38.77
2019-02-21T13:53:16.735Z,36.73
2019-02-21T13:55:47.192Z,39.03
2019-02-21T13:58:16.666Z,31.27
2019-02-21T14:00:45.476Z,34.93
2019-02-21T14:03:15.135Z,39.43
2019-02-21T14:05:44.024Z,33.67
2019-02-21T14:08:13.635Z,36.90
2019-02-21T14:10:43.209Z,33.90
2019-02-21T14:13:12.592Z,40.07
2019-02-21T14:15:41.459Z,37.87
2019-02-21T14:18:10.802Z,35.80
2019-02-21T14:20:45.327Z,37.07
2019-02-21T14:23:09.795Z,39.57
2019-02-21T14:25:41.110Z,38.47
2019-02-21T14:28:08.395Z,34.03
2019-02-21T14:30:37.255Z,32.70
2019-02-21T14:33:06.150Z,25.57
2019-02-21T14:35:36.169Z,29.50
2019-02-21T14:38:05.205Z,26.23
2019-02-21T14:40:34.003Z,23.67
2019-02-21T14:43:02.789Z,25.07
2019-02-21T14:45:31.591Z,23.97
2019-02-21T14:48:02.221Z,18.77
2019-02-21T14:50:32.095Z,26.93
2019-02-21T14:53:00.893Z,26.57
2019-02-21T14:55:30.260Z,21.67
2019-02-21T14:57:58.556Z,24.77
2019-02-21T15:00:27.368Z,27.27
2019-02-21T15:02:57.822Z,21.00
2019-02-21T15:05:25.531Z,26.50
2019-02-21T15:07:54.372Z,26.23
2019-02-21T15:10:24.205Z,28.20
2019-02-21T15:12:53.021Z,30.23
2019-02-21T15:15:22.265Z,32.20
2019-02-21T15:17:51.286Z,23.13
2019-02-21T15:20:20.152Z,22.13
2019-02-21T15:22:49.635Z,24.17
2019-02-21T15:25:18.394Z,27.57
2019-02-21T15:27:47.211Z,30.13
2019-02-21T15:30:17.539Z,25.67
2019-02-21T15:32:48.064Z,25.70
2019-02-21T15:35:19.318Z,27.33
2019-02-21T15:37:47.868Z,24.97
2019-02-21T15:40:17.751Z,29.90
2019-02-21T15:42:47.182Z,31.07
2019-02-21T15:45:23.182Z,28.37
2019-02-21T15:47:46.875Z,28.73
2019-02-21T15:50:16.135Z,24.10
2019-02-21T15:52:45.013Z,31.57
2019-02-21T15:55:14.892Z,30.37
2019-02-21T15:57:44.319Z,33.40
2019-02-21T16:00:15.237Z,33.37
2019-02-21T16:02:44.071Z,30.03
2019-02-21T16:05:13.943Z,31.67
2019-02-21T16:07:43.967Z,32.27
2019-02-21T16:10:14.972Z,33.10
2019-02-21T16:12:44.299Z,28.83
2019-02-21T16:15:16.215Z,33.40
2019-02-21T16:17:42.652Z,37.43
2019-02-21T16:20:12.239Z,30.97
2019-02-21T16:22:41.229Z,34.30
2019-02-21T16:25:11.973Z,36.30
2019-02-21T16:27:40.931Z,37.07
2019-02-21T16:30:09.928Z,36.37
2019-02-21T16:32:38.742Z,39.00
2019-02-21T16:35:08.335Z,38.67
2019-02-21T16:37:40.395Z,45.07
2019-02-21T16:40:10.763Z,47.53
2019-02-21T16:42:39.618Z,38.37
2019-02-21T16:45:09.866Z,36.70
2019-02-21T16:47:38.715Z,40.70
2019-02-21T16:50:08.547Z,45.83
2019-02-21T16:52:37.475Z,46.13
2019-02-21T16:55:08.929Z,43.43
2019-02-21T16:57:39.332Z,52.20
2019-02-21T17:00:11.088Z,41.03
2019-02-21T17:02:39.873Z,47.60
2019-02-21T17:05:09.259Z,53.73
2019-02-21T17:07:38.127Z,46.10
2019-02-21T17:10:07.702Z,49.80
2019-02-21T17:12:37.218Z,48.77
2019-02-21T17:15:07.576Z,55.80
2019-02-21T17:17:36.973Z,52.83
2019-02-21T17:20:06.721Z,58.33
2019-02-21T17:22:35.586Z,52.67
2019-02-21T17:25:04.771Z,60.07
2019-02-21T17:27:34.332Z,53.57
2019-02-21T17:30:03.162Z,58.07
2019-02-21T17:32:33.830Z,65.40
2019-02-21T17:35:03.620Z,59.43
2019-02-21T17:37:32.505Z,61.53
2019-02-21T17:40:01.389Z,60.70
2019-02-21T17:42:30.215Z,60.03
2019-02-21T17:44:59.051Z,62.33
2019-02-21T17:47:27.868Z,48.93
2019-02-21T17:49:56.752Z,64.67
2019-02-21T17:52:25.548Z,60.97
2019-02-21T17:54:54.398Z,58.07
2019-02-21T17:57:23.196Z,60.77
2019-02-21T17:59:52.031Z,60.63
2019-02-21T18:02:21.711Z,51.27
2019-02-21T18:04:51.257Z,55.43
2019-02-21T18:07:20.719Z,56.33
2019-02-21T18:09:49.521Z,53.30
2019-02-21T18:12:18.351Z,45.70
2019-02-21T18:14:47.167Z,46.60
2019-02-21T18:17:16.677Z,47.13
2019-02-21T18:19:45.502Z,51.83
2019-02-21T18:22:14.998Z,51.13
2019-02-21T18:24:44.595Z,49.43
2019-02-21T18:27:13.458Z,49.03
2019-02-21T18:29:43.779Z,51.97
2019-02-21T18:32:17.437Z,54.33
2019-02-21T18:34:49.608Z,46.73
2019-02-21T18:37:19.116Z,48.77
2019-02-21T18:39:47.965Z,53.90
2019-02-21T18:42:18.047Z,43.27
2019-02-21T18:44:47.163Z,54.67
2019-02-21T18:47:18.982Z,58.13
2019-02-21T18:49:48.039Z,49.00
2019-02-21T18:52:17.242Z,53.53
2019-02-21T18:54:46.067Z,57.17
2019-02-21T18:57:15.885Z,60.87
2019-02-21T19:00:09.923Z,55.50
2019-02-21T19:02:38.799Z,64.33
2019-02-21T19:05:07.818Z,70.80
2019-02-21T19:07:37.475Z,66.57
2019-02-21T19:10:08.119Z,51.90
2019-02-21T19:12:38.230Z,60.63
2019-02-21T19:15:08.734Z,64.83
2019-02-21T19:17:37.606Z,63.63
2019-02-21T19:20:08.298Z,63.70
2019-02-21T19:22:37.422Z,59.57
2019-02-21T19:25:08.562Z,60.57
2019-02-21T19:27:37.714Z,69.97
2019-02-21T19:30:10.197Z,73.27
2019-02-21T19:32:39.355Z,60.13
2019-02-21T19:35:08.924Z,59.23
2019-02-21T19:37:37.678Z,61.93
2019-02-21T19:40:08.099Z,58.23
2019-02-21T19:42:36.912Z,61.40
2019-02-21T19:45:06.364Z,56.70
2019-02-21T19:47:35.933Z,68.73
2019-02-21T19:50:04.997Z,68.63
2019-02-21T19:52:33.894Z,69.90
2019-02-21T19:55:03.037Z,63.27
2019-02-21T19:57:32.959Z,77.57
2019-02-21T20:00:02.400Z,70.03
2019-02-21T20:02:31.795Z,74.30
2019-02-21T20:05:00.614Z,74.17
2019-02-21T20:07:30.371Z,69.43
2019-02-21T20:10:00.038Z,63.97
2019-02-21T20:12:28.908Z,72.97
2019-02-21T20:14:57.715Z,66.27
2019-02-21T20:17:26.631Z,62.23
2019-02-21T20:19:55.511Z,69.03
2019-02-21T20:22:24.323Z,75.13
2019-02-21T20:24:53.166Z,71.07
2019-02-21T20:27:22.081Z,66.40
2019-02-21T20:29:50.943Z,66.50
2019-02-21T20:32:19.759Z,67.37
2019-02-21T20:34:48.567Z,65.17
2019-02-21T20:37:17.409Z,81.87
2019-02-21T20:39:46.216Z,72.03
2019-02-21T20:42:15.313Z,74.27
2019-02-21T20:44:44.123Z,71.90
2019-02-21T20:47:12.975Z,83.37
2019-02-21T20:49:41.768Z,72.13
2019-02-21T20:52:10.572Z,75.60
2019-02-21T20:54:39.363Z,75.03
2019-02-21T20:57:08.234Z,74.57
2019-02-21T20:59:37.048Z,68.17
2019-02-21T21:02:05.842Z,73.17
2019-02-21T21:04:34.760Z,75.53
2019-02-21T21:07:03.614Z,71.10
2019-02-21T21:09:32.997Z,71.50
2019-02-21T21:12:01.847Z,72.07
2019-02-21T21:14:30.648Z,77.77
2019-02-21T21:16:59.470Z,80.93
2019-02-21T21:19:28.261Z,74.03
2019-02-21T21:21:57.159Z,74.97
2019-02-21T21:24:26.487Z,81.30
2019-02-21T21:26:56.253Z,78.53
2019-02-21T21:29:25.058Z,82.50
2019-02-21T21:31:55.010Z,87.07
2019-02-21T21:34:25.805Z,84.30
2019-02-21T21:36:54.666Z,76.87
2019-02-21T21:39:23.643Z,89.80
2019-02-21T21:41:52.433Z,94.30
2019-02-21T21:44:21.243Z,89.57
2019-02-21T21:46:50.084Z,91.20
2019-02-21T21:49:20.117Z,91.93
2019-02-21T21:51:48.881Z,98.23
2019-02-21T21:54:17.733Z,102.50
2019-02-21T21:56:46.564Z,103.70
2019-02-21T21:59:15.410Z,101.07
2019-02-21T22:01:47.555Z,100.47
2019-02-21T22:04:15.182Z,106.63
2019-02-21T22:06:44.049Z,115.53
2019-02-21T22:09:12.927Z,121.13
2019-02-21T22:11:41.847Z,113.37
2019-02-21T22:14:10.650Z,115.73
2019-02-21T22:16:39.448Z,109.03
2019-02-21T22:19:08.288Z,117.53
2019-02-21T22:21:37.124Z,122.07
2019-02-21T22:24:05.980Z,126.33
2019-02-21T22:26:35.595Z,142.07
2019-02-21T22:29:05.095Z,129.30
2019-02-21T22:31:33.987Z,119.33
2019-02-21T22:34:02.800Z,136.37
2019-02-21T22:36:31.701Z,120.17
2019-02-21T22:39:02.076Z,120.27
2019-02-21T22:41:29.348Z,116.47
2019-02-21T22:43:58.146Z,131.03
2019-02-21T22:46:27.223Z,144.60
2019-02-21T22:48:57.299Z,131.43
2019-02-21T22:51:26.108Z,122.30
2019-02-21T22:53:54.919Z,121.20
2019-02-21T22:56:26.358Z,119.50
2019-02-21T22:58:55.236Z,143.93
2019-02-21T23:01:29.319Z,140.23
2019-02-21T23:04:15.001Z,135.10
2019-02-21T23:07:00.744Z,128.63
2019-02-21T23:09:30.200Z,123.63
2019-02-21T23:11:59.036Z,117.77
2019-02-21T23:14:27.847Z,120.70
2019-02-21T23:16:56.644Z,157.83
2019-02-21T23:19:25.805Z,114.00
2019-02-21T23:21:55.320Z,128.10
2019-02-21T23:24:24.204Z,131.10
2019-02-21T23:26:53.007Z,113.00
2019-02-21T23:29:21.902Z,120.20
2019-02-21T23:31:50.732Z,137.93
2019-02-21T23:34:25.083Z,130.20
2019-02-21T23:36:53.990Z,117.40
2019-02-21T23:39:23.492Z,114.80
2019-02-21T23:41:52.365Z,128.40
2019-02-21T23:44:21.178Z,113.60
2019-02-21T23:46:54.118Z,139.67
2019-02-21T23:49:21.881Z,119.77
2019-02-21T23:51:52.019Z,116.33
2019-02-21T23:54:21.988Z,123.83
2019-02-21T23:56:50.830Z,123.67
2019-02-21T23:59:20.189Z,125.27
